createdAt,value
2023-04-30T00:00:48.013Z,39.80
2023-04-30T00:01:48.013Z,43.90
2023-04-30T00:02:48.081Z,35.40
2023-04-30T00:03:48.041Z,41.20
2023-04-30T00:04:47.928Z,32.50
2023-04-30T00:05:47.952Z,40.50
2023-04-30T00:06:47.971Z,38.30
2023-04-30T00:07:47.914Z,38.60
2023-04-30T00:08:47.918Z,42.20
2023-04-30T00:09:47.912Z,34.30
2023-04-30T00:10:47.920Z,36.50
2023-04-30T00:11:47.893Z,36.80
2023-04-30T00:12:47.895Z,38.20
2023-04-30T00:13:47.880Z,39.30
2023-04-30T00:14:47.870Z,41.20
2023-04-30T00:15:47.884Z,40.70
2023-04-30T00:16:47.947Z,48.90
2023-04-30T00:17:47.866Z,38.80
2023-04-30T00:18:47.850Z,40.50
2023-04-30T00:19:47.839Z,33.40
2023-04-30T00:20:47.853Z,51.30
2023-04-30T00:21:47.831Z,49.10
2023-04-30T00:22:47.814Z,44.30
2023-04-30T00:23:47.819Z,48.30
2023-04-30T00:24:47.803Z,45.20
2023-04-30T00:25:47.824Z,54.40
2023-04-30T00:26:47.792Z,56.60
2023-04-30T00:27:47.796Z,53.20
2023-04-30T00:28:47.785Z,45.80
2023-04-30T00:29:47.761Z,42.20
2023-04-30T00:30:47.796Z,44.20
2023-04-30T00:31:47.822Z,44.10
2023-04-30T00:32:47.796Z,54.40
2023-04-30T00:33:47.750Z,53.70
2023-04-30T00:34:47.748Z,56.50
2023-04-30T00:35:47.775Z,47.10
2023-04-30T00:36:47.728Z,50.20
2023-04-30T00:37:47.723Z,51.00
2023-04-30T00:38:47.722Z,47.50
2023-04-30T00:39:47.709Z,45.80
2023-04-30T00:40:47.740Z,52.90
2023-04-30T00:41:47.704Z,46.20
2023-04-30T00:42:47.693Z,58.10
2023-04-30T00:43:47.700Z,59.30
2023-04-30T00:44:47.680Z,66.10
2023-04-30T00:45:47.713Z,114.10
2023-04-30T00:46:47.669Z,87.20
2023-04-30T00:47:47.699Z,57.60
2023-04-30T00:48:47.708Z,86.30
2023-04-30T00:49:47.635Z,79.30
2023-04-30T00:50:47.656Z,55.60
2023-04-30T00:51:47.690Z,55.80
2023-04-30T00:52:47.626Z,52.50
2023-04-30T00:53:47.610Z,112.60
2023-04-30T00:54:47.601Z,203.70
2023-04-30T00:55:47.621Z,99.30
2023-04-30T00:56:47.585Z,184.10
2023-04-30T00:57:47.576Z,163.70
2023-04-30T00:58:47.577Z,186.00
2023-04-30T00:59:47.609Z,238.30
2023-04-30T01:00:47.578Z,200.90
2023-04-30T01:01:47.708Z,174.80
2023-04-30T01:02:47.620Z,190.70
2023-04-30T01:03:47.602Z,217.20
2023-04-30T01:04:47.537Z,241.70
2023-04-30T01:05:47.567Z,136.90
2023-04-30T01:06:47.632Z,100.80
2023-04-30T01:07:47.516Z,121.70
2023-04-30T01:08:47.512Z,126.50
2023-04-30T01:09:47.552Z,125.90
2023-04-30T01:10:47.530Z,118.70
2023-04-30T01:11:47.484Z,84.80
2023-04-30T01:12:47.522Z,80.20
2023-04-30T01:13:47.475Z,114.70
2023-04-30T01:14:47.468Z,116.10
2023-04-30T01:15:47.550Z,101.40
2023-04-30T01:16:47.544Z,75.40
2023-04-30T01:17:47.513Z,94.60
2023-04-30T01:18:47.790Z,78.00
2023-04-30T01:19:47.554Z,87.30
2023-04-30T01:20:47.508Z,76.60
2023-04-30T01:21:47.442Z,111.50
2023-04-30T01:22:47.515Z,101.80
2023-04-30T01:23:47.479Z,121.60
2023-04-30T01:24:47.514Z,275.80
2023-04-30T01:25:47.444Z,399.60
2023-04-30T01:26:47.468Z,346.20
2023-04-30T01:27:47.485Z,457.50
2023-04-30T01:28:47.406Z,447.00
2023-04-30T01:29:47.534Z,483.80
2023-04-30T01:30:47.618Z,452.00
2023-04-30T01:31:47.650Z,376.20
2023-04-30T01:32:47.482Z,250.00
2023-04-30T01:33:47.379Z,169.10
2023-04-30T01:34:47.411Z,158.40
2023-04-30T01:35:47.468Z,278.80
2023-04-30T01:36:47.488Z,125.60
2023-04-30T01:37:47.537Z,100.70
2023-04-30T01:38:47.432Z,94.90
2023-04-30T01:39:47.445Z,95.90
2023-04-30T01:40:47.541Z,120.60
2023-04-30T01:41:47.534Z,105.60
2023-04-30T01:42:47.366Z,119.40
2023-04-30T01:43:47.402Z,151.90
2023-04-30T01:44:47.460Z,155.50
2023-04-30T01:45:47.474Z,130.10
2023-04-30T01:46:48.273Z,157.20
2023-04-30T01:47:47.501Z,113.00
2023-04-30T01:48:47.453Z,178.50
2023-04-30T01:49:47.398Z,97.10
2023-04-30T01:50:47.344Z,108.60
2023-04-30T01:51:47.414Z,95.70
2023-04-30T01:52:48.208Z,86.60
2023-04-30T01:53:47.318Z,82.90
2023-04-30T01:54:47.555Z,107.60
2023-04-30T01:55:47.378Z,112.10
2023-04-30T01:56:47.491Z,163.20
2023-04-30T01:57:47.163Z,160.90
2023-04-30T01:58:47.171Z,197.30
2023-04-30T01:59:47.161Z,125.30
2023-04-30T02:00:47.137Z,140.40
2023-04-30T02:01:47.205Z,151.90
2023-04-30T02:02:47.211Z,254.70
2023-04-30T02:03:47.277Z,215.00
2023-04-30T02:04:47.117Z,124.30
2023-04-30T02:05:47.112Z,150.30
2023-04-30T02:06:47.182Z,158.20
2023-04-30T02:07:47.097Z,195.70
2023-04-30T02:08:48.095Z,183.30
2023-04-30T02:09:47.093Z,202.90
2023-04-30T02:10:47.079Z,218.40
2023-04-30T02:11:47.083Z,191.10
2023-04-30T02:12:47.055Z,271.80
2023-04-30T02:13:47.063Z,336.80
2023-04-30T02:14:47.061Z,274.80
2023-04-30T02:15:47.044Z,348.60
2023-04-30T02:16:47.213Z,226.90
2023-04-30T02:17:47.046Z,197.50
2023-04-30T02:18:47.010Z,218.80
2023-04-30T02:19:47.012Z,160.70
2023-04-30T02:20:47.007Z,116.00
2023-04-30T02:21:47.021Z,122.80
2023-04-30T02:22:46.990Z,94.20
2023-04-30T02:23:46.988Z,96.80
2023-04-30T02:24:46.994Z,75.50
2023-04-30T02:25:46.980Z,64.70
2023-04-30T02:26:46.984Z,74.90
2023-04-30T02:27:46.957Z,77.00
2023-04-30T02:28:46.948Z,61.70
2023-04-30T02:29:46.948Z,58.70
2023-04-30T02:30:46.929Z,68.50
2023-04-30T02:31:47.974Z,64.60
2023-04-30T02:32:47.008Z,65.90
2023-04-30T02:33:46.918Z,59.20
2023-04-30T02:34:46.911Z,63.70
2023-04-30T02:35:46.921Z,62.90
2023-04-30T02:36:46.921Z,56.90
2023-04-30T02:37:46.896Z,58.50
2023-04-30T02:38:46.910Z,48.80
2023-04-30T02:39:46.891Z,51.30
2023-04-30T02:40:46.883Z,44.70
2023-04-30T02:41:46.894Z,48.20
2023-04-30T02:42:46.869Z,40.60
2023-04-30T02:43:46.853Z,63.20
2023-04-30T02:44:46.848Z,60.30
2023-04-30T02:45:47.084Z,60.90
2023-04-30T02:46:47.020Z,47.30
2023-04-30T02:47:46.869Z,47.90
2023-04-30T02:48:46.825Z,33.60
2023-04-30T02:49:46.829Z,39.00
2023-04-30T02:50:46.820Z,48.50
2023-04-30T02:51:46.828Z,37.20
2023-04-30T02:52:46.817Z,35.60
2023-04-30T02:53:46.805Z,34.90
2023-04-30T02:54:46.970Z,37.70
2023-04-30T02:55:46.773Z,39.00
2023-04-30T02:56:46.788Z,43.80
2023-04-30T02:57:46.797Z,41.20
2023-04-30T02:58:46.759Z,32.40
2023-04-30T02:59:46.747Z,46.80
2023-04-30T03:00:46.757Z,53.00
2023-04-30T03:01:47.099Z,40.10
2023-04-30T03:02:47.012Z,26.30
2023-04-30T03:03:46.877Z,35.50
2023-04-30T03:04:46.890Z,33.50
2023-04-30T03:05:46.826Z,35.10
2023-04-30T03:06:46.822Z,40.50
2023-04-30T03:07:46.799Z,41.40
2023-04-30T03:08:46.761Z,42.30
2023-04-30T03:09:46.764Z,38.80
2023-04-30T03:10:46.765Z,44.70
2023-04-30T03:11:46.730Z,43.70
2023-04-30T03:12:46.748Z,46.80
2023-04-30T03:13:46.697Z,34.10
2023-04-30T03:14:46.662Z,49.50
2023-04-30T03:15:46.680Z,48.20
2023-04-30T03:16:46.858Z,42.80
2023-04-30T03:17:46.769Z,53.50
2023-04-30T03:18:46.643Z,41.40
2023-04-30T03:19:46.772Z,39.00
2023-04-30T03:20:46.682Z,49.20
2023-04-30T03:21:46.613Z,48.40
2023-04-30T03:22:46.769Z,50.80
2023-04-30T03:23:46.690Z,42.60
2023-04-30T03:24:46.748Z,41.00
2023-04-30T03:25:46.649Z,40.70
2023-04-30T03:26:46.656Z,39.00
2023-04-30T03:27:46.720Z,40.00
2023-04-30T03:28:46.651Z,67.10
2023-04-30T03:29:46.768Z,39.60
2023-04-30T03:30:46.609Z,43.00
2023-04-30T03:31:46.629Z,53.00
2023-04-30T03:32:46.645Z,77.40
2023-04-30T03:33:46.751Z,79.20
2023-04-30T03:34:46.663Z,68.90
2023-04-30T03:35:46.526Z,43.80
2023-04-30T03:36:46.556Z,37.00
2023-04-30T03:37:46.603Z,37.80
2023-04-30T03:38:46.638Z,35.50
2023-04-30T03:39:46.692Z,35.20
2023-04-30T03:40:46.502Z,55.70
2023-04-30T03:41:46.492Z,41.40
2023-04-30T03:42:48.197Z,51.00
2023-04-30T03:43:46.603Z,45.30
2023-04-30T03:44:46.582Z,37.90
2023-04-30T03:45:46.646Z,32.60
2023-04-30T03:46:46.569Z,37.10
2023-04-30T03:47:46.681Z,36.90
2023-04-30T03:48:46.598Z,37.20
2023-04-30T03:49:46.585Z,34.40
2023-04-30T03:50:46.623Z,29.40
2023-04-30T03:51:46.528Z,36.80
2023-04-30T03:52:46.472Z,41.00
2023-04-30T03:53:46.502Z,37.00
2023-04-30T03:54:46.460Z,32.10
2023-04-30T03:55:46.598Z,31.60
2023-04-30T03:56:46.714Z,28.60
2023-04-30T03:57:46.480Z,33.00
2023-04-30T03:58:46.465Z,48.50
2023-04-30T03:59:46.566Z,40.30
2023-04-30T04:00:46.408Z,59.10
2023-04-30T04:01:47.522Z,45.90
2023-04-30T04:02:46.603Z,64.70
2023-04-30T04:03:46.421Z,51.30
2023-04-30T04:04:46.409Z,78.00
2023-04-30T04:05:46.490Z,95.60
2023-04-30T04:06:46.453Z,74.40
2023-04-30T04:07:46.459Z,61.20
2023-04-30T04:08:46.386Z,93.10
2023-04-30T04:09:46.505Z,58.60
2023-04-30T04:10:46.416Z,42.20
2023-04-30T04:11:46.414Z,44.10
2023-04-30T04:12:47.257Z,55.90
2023-04-30T04:13:46.483Z,66.70
2023-04-30T04:14:46.391Z,172.30
2023-04-30T04:15:46.467Z,120.40
2023-04-30T04:16:46.369Z,89.80
2023-04-30T04:17:46.416Z,61.60
2023-04-30T04:18:46.524Z,46.60
2023-04-30T04:19:46.501Z,44.00
2023-04-30T04:20:46.495Z,43.20
2023-04-30T04:21:46.382Z,46.20
2023-04-30T04:22:46.353Z,44.20
2023-04-30T04:23:46.458Z,53.50
2023-04-30T04:24:46.465Z,126.60
2023-04-30T04:25:47.290Z,102.10
2023-04-30T04:26:48.117Z,111.60
2023-04-30T04:27:47.244Z,102.00
2023-04-30T04:28:46.359Z,91.20
2023-04-30T04:29:47.668Z,90.90
2023-04-30T04:30:46.442Z,79.60
2023-04-30T04:31:46.436Z,114.60
2023-04-30T04:32:46.377Z,84.40
2023-04-30T04:33:46.425Z,113.30
2023-04-30T04:34:46.336Z,114.10
2023-04-30T04:35:46.375Z,118.30
2023-04-30T04:36:46.434Z,153.40
2023-04-30T04:37:46.350Z,98.20
2023-04-30T04:38:46.357Z,129.20
2023-04-30T04:39:46.444Z,161.90
2023-04-30T04:40:46.713Z,146.60
2023-04-30T04:41:46.362Z,110.80
2023-04-30T04:42:46.282Z,89.70
2023-04-30T04:43:46.706Z,122.30
2023-04-30T04:44:46.360Z,109.00
2023-04-30T04:45:46.292Z,148.90
2023-04-30T04:46:46.433Z,92.40
2023-04-30T04:47:46.113Z,88.10
2023-04-30T04:48:46.255Z,78.60
2023-04-30T04:49:46.340Z,88.30
2023-04-30T04:50:46.357Z,89.20
2023-04-30T04:51:46.093Z,83.60
2023-04-30T04:52:46.077Z,68.80
2023-04-30T04:53:46.474Z,72.80
2023-04-30T04:54:46.102Z,78.30
2023-04-30T04:55:46.060Z,73.40
2023-04-30T04:56:46.026Z,73.80
2023-04-30T04:57:46.117Z,78.00
2023-04-30T04:58:46.073Z,69.10
2023-04-30T04:59:46.031Z,66.90
2023-04-30T05:00:46.025Z,53.90
2023-04-30T05:01:46.061Z,57.10
2023-04-30T05:02:46.102Z,64.90
2023-04-30T05:03:46.199Z,50.10
2023-04-30T05:04:46.004Z,49.30
2023-04-30T05:05:45.989Z,59.20
2023-04-30T05:06:46.051Z,64.90
2023-04-30T05:07:45.983Z,43.60
2023-04-30T05:08:46.013Z,37.20
2023-04-30T05:09:46.003Z,47.70
2023-04-30T05:10:45.959Z,48.50
2023-04-30T05:11:45.944Z,42.40
2023-04-30T05:12:46.922Z,57.50
2023-04-30T05:13:45.943Z,49.30
2023-04-30T05:14:45.901Z,51.30
2023-04-30T05:15:45.975Z,47.20
2023-04-30T05:16:45.937Z,50.70
2023-04-30T05:17:45.931Z,51.40
2023-04-30T05:18:45.900Z,55.90
2023-04-30T05:19:45.869Z,60.10
2023-04-30T05:20:45.872Z,59.80
2023-04-30T05:21:45.974Z,51.60
2023-04-30T05:22:45.868Z,51.90
2023-04-30T05:23:45.868Z,51.80
2023-04-30T05:24:45.840Z,58.60
2023-04-30T05:25:45.838Z,56.80
2023-04-30T05:26:45.824Z,53.40
2023-04-30T05:27:45.812Z,54.80
2023-04-30T05:28:45.867Z,52.20
2023-04-30T05:29:45.805Z,54.80
2023-04-30T05:30:45.815Z,56.10
2023-04-30T05:31:45.856Z,48.60
2023-04-30T05:32:45.795Z,54.00
2023-04-30T05:33:45.796Z,58.20
2023-04-30T05:34:45.800Z,57.60
2023-04-30T05:35:45.965Z,43.80
2023-04-30T05:36:45.877Z,39.50
2023-04-30T05:37:45.866Z,38.40
2023-04-30T05:38:45.843Z,37.70
2023-04-30T05:39:45.792Z,36.60
2023-04-30T05:40:45.725Z,34.50
2023-04-30T05:41:46.758Z,34.20
2023-04-30T05:42:45.757Z,53.50
2023-04-30T05:43:46.088Z,58.80
2023-04-30T05:44:45.790Z,62.00
2023-04-30T05:45:46.494Z,72.40
2023-04-30T05:46:45.915Z,78.00
2023-04-30T05:47:45.765Z,72.40
2023-04-30T05:48:45.674Z,66.20
2023-04-30T05:49:46.712Z,65.00
2023-04-30T05:50:45.646Z,50.70
2023-04-30T05:51:45.731Z,45.50
2023-04-30T05:52:45.640Z,37.30
2023-04-30T05:53:45.670Z,32.80
2023-04-30T05:54:46.840Z,30.30
2023-04-30T05:55:45.625Z,27.90
2023-04-30T05:56:45.607Z,22.50
2023-04-30T05:57:45.614Z,21.10
2023-04-30T05:58:45.619Z,20.40
2023-04-30T05:59:45.594Z,20.00
2023-04-30T06:00:45.614Z,18.10
2023-04-30T06:01:45.599Z,17.50
2023-04-30T06:02:45.662Z,15.80
2023-04-30T06:03:45.793Z,14.50
2023-04-30T06:04:45.579Z,15.40
2023-04-30T06:05:45.645Z,13.60
2023-04-30T06:06:45.771Z,14.30
2023-04-30T06:07:45.534Z,14.70
2023-04-30T06:08:45.742Z,13.50
2023-04-30T06:09:45.527Z,13.10
2023-04-30T06:10:45.524Z,14.40
2023-04-30T06:11:45.518Z,14.10
2023-04-30T06:12:45.520Z,13.10
2023-04-30T06:13:45.568Z,11.20
2023-04-30T06:14:45.514Z,12.90
2023-04-30T06:15:45.483Z,12.90
2023-04-30T06:16:45.585Z,9.90
2023-04-30T06:17:45.498Z,9.50
2023-04-30T06:18:45.510Z,9.80
2023-04-30T06:19:45.570Z,9.70
2023-04-30T06:20:45.557Z,9.40
2023-04-30T06:21:46.307Z,9.30
2023-04-30T06:22:45.443Z,9.30
2023-04-30T06:23:45.445Z,10.10
2023-04-30T06:24:45.645Z,10.20
2023-04-30T06:25:45.477Z,10.00
2023-04-30T06:26:45.599Z,10.20
2023-04-30T06:27:45.401Z,9.80
2023-04-30T06:28:45.384Z,9.90
2023-04-30T06:29:45.401Z,11.00
2023-04-30T06:30:45.382Z,11.60
2023-04-30T06:31:45.433Z,9.60
2023-04-30T06:32:45.402Z,9.70
2023-04-30T06:33:45.538Z,8.30
2023-04-30T06:34:45.378Z,9.70
2023-04-30T06:35:45.343Z,8.80
2023-04-30T06:36:45.339Z,8.60
2023-04-30T06:37:45.343Z,9.10
2023-04-30T06:38:45.327Z,8.70
2023-04-30T06:39:45.457Z,9.20
2023-04-30T06:40:45.313Z,7.80
2023-04-30T06:41:45.297Z,8.30
2023-04-30T06:42:46.951Z,8.70
2023-04-30T06:43:45.333Z,8.70
2023-04-30T06:44:45.304Z,8.10
2023-04-30T06:45:45.299Z,7.90
2023-04-30T06:46:45.334Z,7.90
2023-04-30T06:47:45.332Z,8.00
2023-04-30T06:48:45.289Z,7.50
2023-04-30T06:49:45.275Z,8.40
2023-04-30T06:50:45.305Z,7.50
2023-04-30T06:51:45.239Z,7.20
2023-04-30T06:52:45.248Z,7.40
2023-04-30T06:53:45.258Z,8.20
2023-04-30T06:54:45.237Z,8.20
2023-04-30T06:55:45.227Z,7.20
2023-04-30T06:56:45.267Z,6.70
2023-04-30T06:57:45.338Z,7.60
2023-04-30T06:58:45.199Z,7.30
2023-04-30T06:59:45.199Z,6.70
2023-04-30T07:00:45.165Z,6.30
2023-04-30T07:01:45.173Z,6.90
2023-04-30T07:02:45.353Z,6.40
2023-04-30T07:03:45.265Z,6.10
2023-04-30T07:04:45.145Z,7.40
2023-04-30T07:05:45.139Z,9.00
2023-04-30T07:06:45.174Z,6.70
2023-04-30T07:07:45.128Z,7.90
2023-04-30T07:08:45.149Z,6.80
2023-04-30T07:09:45.118Z,6.80
2023-04-30T07:10:45.098Z,5.80
2023-04-30T07:11:45.246Z,7.20
2023-04-30T07:12:45.093Z,10.30
2023-04-30T07:13:45.104Z,7.10
2023-04-30T07:14:45.073Z,6.30
2023-04-30T07:15:45.076Z,7.50
2023-04-30T07:16:45.065Z,9.40
2023-04-30T07:17:45.077Z,7.20
2023-04-30T07:18:45.058Z,6.70
2023-04-30T07:19:45.045Z,6.10
2023-04-30T07:20:45.039Z,7.10
2023-04-30T07:21:45.051Z,5.90
2023-04-30T07:22:45.011Z,7.10
2023-04-30T07:23:45.036Z,9.90
2023-04-30T07:24:45.009Z,6.30
2023-04-30T07:25:45.012Z,5.60
2023-04-30T07:26:44.992Z,5.80
2023-04-30T07:27:44.987Z,5.60
2023-04-30T07:28:45.003Z,5.70
2023-04-30T07:29:44.983Z,5.10
2023-04-30T07:30:45.008Z,5.80
2023-04-30T07:31:45.011Z,7.00
2023-04-30T07:32:44.952Z,5.60
2023-04-30T07:33:44.970Z,8.80
2023-04-30T07:34:44.938Z,5.20
2023-04-30T07:35:45.921Z,5.20
2023-04-30T07:36:44.932Z,4.30
2023-04-30T07:37:44.948Z,5.00
2023-04-30T07:38:44.944Z,12.00
2023-04-30T07:39:44.903Z,6.80
2023-04-30T07:40:44.892Z,4.60
2023-04-30T07:41:44.886Z,4.20
2023-04-30T07:42:44.879Z,4.00
2023-04-30T07:43:45.161Z,4.60
2023-04-30T07:44:44.867Z,3.90
2023-04-30T07:45:44.895Z,4.10
2023-04-30T07:46:44.871Z,4.30
2023-04-30T07:47:44.885Z,5.60
2023-04-30T07:48:44.876Z,5.20
2023-04-30T07:49:44.822Z,8.10
2023-04-30T07:50:44.828Z,4.40
2023-04-30T07:51:44.821Z,8.20
2023-04-30T07:52:44.824Z,3.80
2023-04-30T07:53:44.823Z,6.50
2023-04-30T07:54:44.798Z,5.80
2023-04-30T07:55:44.795Z,3.60
2023-04-30T07:56:44.787Z,4.30
2023-04-30T07:57:44.770Z,3.70
2023-04-30T07:58:44.809Z,4.30
2023-04-30T07:59:44.826Z,3.30
2023-04-30T08:00:44.744Z,3.20
2023-04-30T08:01:44.812Z,3.60
2023-04-30T08:02:44.923Z,3.20
2023-04-30T08:03:44.894Z,3.30
2023-04-30T08:04:44.726Z,8.20
2023-04-30T08:05:44.722Z,3.90
2023-04-30T08:06:44.823Z,11.10
2023-04-30T08:07:44.721Z,11.10
2023-04-30T08:08:44.724Z,7.20
2023-04-30T08:09:44.697Z,3.00
2023-04-30T08:10:44.685Z,4.20
2023-04-30T08:11:44.679Z,2.80
2023-04-30T08:12:44.668Z,2.90
2023-04-30T08:13:44.682Z,4.50
2023-04-30T08:14:45.656Z,2.90
2023-04-30T08:15:44.677Z,3.40
2023-04-30T08:16:44.697Z,2.70
2023-04-30T08:17:44.714Z,3.10
2023-04-30T08:18:44.661Z,3.90
2023-04-30T08:19:44.683Z,2.80
2023-04-30T08:20:44.599Z,3.00
2023-04-30T08:21:44.618Z,3.40
2023-04-30T08:22:44.616Z,3.20
2023-04-30T08:23:44.622Z,3.10
2023-04-30T08:24:44.590Z,3.30
2023-04-30T08:25:44.588Z,2.80
2023-04-30T08:26:44.590Z,3.60
2023-04-30T08:27:44.604Z,3.50
2023-04-30T08:28:44.559Z,3.20
2023-04-30T08:29:44.560Z,3.00
2023-04-30T08:30:44.547Z,3.10
2023-04-30T08:31:44.578Z,3.30
2023-04-30T08:32:44.605Z,3.60
2023-04-30T08:33:44.530Z,3.20
2023-04-30T08:34:44.522Z,3.20
2023-04-30T08:35:44.514Z,3.60
2023-04-30T08:36:44.511Z,3.80
2023-04-30T08:37:44.529Z,3.80
2023-04-30T08:38:44.499Z,3.30
2023-04-30T08:39:44.495Z,3.70
2023-04-30T08:40:51.504Z,3.30
2023-04-30T08:41:46.485Z,3.40
2023-04-30T08:42:44.490Z,4.00
2023-04-30T08:43:44.465Z,3.50
2023-04-30T08:44:44.458Z,3.50
2023-04-30T08:45:44.718Z,4.10
2023-04-30T08:46:44.468Z,5.70
2023-04-30T08:47:45.256Z,4.40
2023-04-30T08:48:44.453Z,2.60
2023-04-30T08:49:44.435Z,3.30
2023-04-30T08:50:44.413Z,3.20
2023-04-30T08:51:44.394Z,3.00
2023-04-30T08:52:44.386Z,2.40
2023-04-30T08:53:44.416Z,6.40
2023-04-30T08:54:44.381Z,5.00
2023-04-30T08:55:44.368Z,6.80
2023-04-30T08:56:44.386Z,8.70
2023-04-30T08:57:44.362Z,10.00
2023-04-30T08:58:45.399Z,2.30
2023-04-30T08:59:44.391Z,4.10
2023-04-30T09:00:44.341Z,3.30
2023-04-30T09:01:44.387Z,3.10
2023-04-30T09:02:44.399Z,1.50
2023-04-30T09:03:44.495Z,1.70
2023-04-30T09:04:44.302Z,2.60
2023-04-30T09:05:44.303Z,3.70
2023-04-30T09:06:44.404Z,6.70
2023-04-30T09:07:55.592Z,1.80
2023-04-30T09:08:45.276Z,1.70
2023-04-30T09:09:44.277Z,2.20
2023-04-30T09:10:44.269Z,10.80
2023-04-30T09:11:44.261Z,1.90
2023-04-30T09:12:44.274Z,1.80
2023-04-30T09:13:44.242Z,2.10
2023-04-30T09:14:44.248Z,2.10
2023-04-30T09:15:44.371Z,1.80
2023-04-30T09:16:44.231Z,2.10
2023-04-30T09:17:45.515Z,1.90
2023-04-30T09:18:44.208Z,1.30
2023-04-30T09:19:44.311Z,1.40
2023-04-30T09:20:44.192Z,7.20
2023-04-30T09:21:44.192Z,1.60
2023-04-30T09:22:44.196Z,3.10
2023-04-30T09:23:44.180Z,1.80
2023-04-30T09:24:44.166Z,1.60
2023-04-30T09:25:44.163Z,1.50
2023-04-30T09:26:44.164Z,4.90
2023-04-30T09:27:44.213Z,2.60
2023-04-30T09:28:44.134Z,1.40
2023-04-30T09:29:44.358Z,1.50
2023-04-30T09:30:44.121Z,15.80
2023-04-30T09:31:44.179Z,1.90
2023-04-30T09:32:44.159Z,39.80
2023-04-30T09:33:44.095Z,63.70
2023-04-30T09:34:44.142Z,65.40
2023-04-30T09:35:44.094Z,86.40
2023-04-30T09:36:44.078Z,5.80
2023-04-30T09:37:44.107Z,19.10
2023-04-30T09:38:44.058Z,8.20
2023-04-30T09:39:44.060Z,2.70
2023-04-30T09:40:44.062Z,2.50
2023-04-30T09:41:44.040Z,1.80
2023-04-30T09:42:44.116Z,1.50
2023-04-30T09:43:44.032Z,1.40
2023-04-30T09:44:44.033Z,1.10
2023-04-30T09:45:44.028Z,1.20
2023-04-30T09:46:44.082Z,1.00
2023-04-30T09:47:44.081Z,1.60
2023-04-30T09:48:44.005Z,1.10
2023-04-30T09:49:44.003Z,1.20
2023-04-30T09:50:43.980Z,1.70
2023-04-30T09:51:44.010Z,1.30
2023-04-30T09:52:44.043Z,2.10
2023-04-30T09:53:43.976Z,1.00
2023-04-30T09:54:43.963Z,0.90
2023-04-30T09:55:43.955Z,0.90
2023-04-30T09:56:43.951Z,0.90
2023-04-30T09:57:43.977Z,1.10
2023-04-30T09:58:43.939Z,1.10
2023-04-30T09:59:43.937Z,1.10
2023-04-30T10:00:43.962Z,1.20
2023-04-30T10:01:43.922Z,1.10
2023-04-30T10:02:43.951Z,1.10
2023-04-30T10:03:44.114Z,0.70
2023-04-30T10:04:43.879Z,0.90
2023-04-30T10:05:43.890Z,1.10
2023-04-30T10:06:44.015Z,1.10
2023-04-30T10:07:43.897Z,1.10
2023-04-30T10:08:43.933Z,1.00
2023-04-30T10:09:43.889Z,0.90
2023-04-30T10:10:43.872Z,1.10
2023-04-30T10:11:43.855Z,0.80
2023-04-30T10:12:43.852Z,0.70
2023-04-30T10:13:43.870Z,0.60
2023-04-30T10:14:43.860Z,0.60
2023-04-30T10:15:43.813Z,1.90
2023-04-30T10:16:43.878Z,0.70
2023-04-30T10:17:43.840Z,0.90
2023-04-30T10:18:44.206Z,1.40
2023-04-30T10:19:45.548Z,2.70
2023-04-30T10:20:43.787Z,1.50
2023-04-30T10:21:43.779Z,0.80
2023-04-30T10:22:43.812Z,0.50
2023-04-30T10:23:43.922Z,0.60
2023-04-30T10:24:43.778Z,0.60
2023-04-30T10:25:43.759Z,0.50
2023-04-30T10:26:43.744Z,0.60
2023-04-30T10:27:43.793Z,0.60
2023-04-30T10:28:43.749Z,0.50
2023-04-30T10:29:43.729Z,0.70
2023-04-30T10:30:43.723Z,0.70
2023-04-30T10:31:43.720Z,0.60
2023-04-30T10:32:43.730Z,0.50
2023-04-30T10:33:43.703Z,0.80
2023-04-30T10:34:43.718Z,0.50
2023-04-30T10:35:43.742Z,1.00
2023-04-30T10:36:43.725Z,1.10
2023-04-30T10:37:43.665Z,0.70
2023-04-30T10:38:43.672Z,0.80
2023-04-30T10:39:43.685Z,0.60
2023-04-30T10:40:43.654Z,0.50
2023-04-30T10:41:43.652Z,0.60
2023-04-30T10:42:43.621Z,0.80
2023-04-30T10:43:43.680Z,1.00
2023-04-30T10:44:43.637Z,0.60
2023-04-30T10:45:43.695Z,0.90
2023-04-30T10:46:43.653Z,0.80
2023-04-30T10:47:43.657Z,1.00
2023-04-30T10:48:43.589Z,0.80
2023-04-30T10:49:43.632Z,1.30
2023-04-30T10:50:45.786Z,1.70
2023-04-30T10:51:44.571Z,0.90
2023-04-30T10:52:43.577Z,1.00
2023-04-30T10:53:43.599Z,1.60
2023-04-30T10:54:43.566Z,0.70
2023-04-30T10:55:43.558Z,1.80
2023-04-30T10:56:43.537Z,0.90
2023-04-30T10:57:43.570Z,5.10
2023-04-30T10:58:43.577Z,0.90
2023-04-30T10:59:43.540Z,2.20
2023-04-30T11:00:44.889Z,1.30
2023-04-30T11:01:43.571Z,0.70
2023-04-30T11:02:44.590Z,1.20
2023-04-30T11:03:43.520Z,0.80
2023-04-30T11:04:43.784Z,0.60
2023-04-30T11:05:43.641Z,0.70
2023-04-30T11:06:44.997Z,0.80
2023-04-30T11:07:44.468Z,2.40
2023-04-30T11:08:43.529Z,0.90
2023-04-30T11:09:43.498Z,1.00
2023-04-30T11:10:44.193Z,1.50
2023-04-30T11:11:43.438Z,1.00
2023-04-30T11:12:43.434Z,1.00
2023-04-30T11:13:43.496Z,0.70
2023-04-30T11:14:43.447Z,1.10
2023-04-30T11:15:43.447Z,1.30
2023-04-30T11:16:43.428Z,0.60
2023-04-30T11:17:43.411Z,0.60
2023-04-30T11:18:43.424Z,0.60
2023-04-30T11:19:44.482Z,0.80
2023-04-30T11:20:43.401Z,1.90
2023-04-30T11:21:43.369Z,0.60
2023-04-30T11:22:43.393Z,0.60
2023-04-30T11:23:43.534Z,0.60
2023-04-30T11:24:43.409Z,0.60
2023-04-30T11:25:43.376Z,0.60
2023-04-30T11:26:43.344Z,3.40
2023-04-30T11:27:43.327Z,3.30
2023-04-30T11:28:43.432Z,1.10
2023-04-30T11:29:43.315Z,3.90
2023-04-30T11:30:44.343Z,4.70
2023-04-30T11:31:43.349Z,3.00
2023-04-30T11:32:43.353Z,0.50
2023-04-30T11:33:43.348Z,2.70
2023-04-30T11:34:43.297Z,2.90
2023-04-30T11:35:43.288Z,0.40
2023-04-30T11:36:44.607Z,0.60
2023-04-30T11:37:43.262Z,0.50
2023-04-30T11:38:43.297Z,1.40
2023-04-30T11:39:43.263Z,3.20
2023-04-30T11:40:43.273Z,3.10
2023-04-30T11:41:43.269Z,0.70
2023-04-30T11:42:45.466Z,0.60
2023-04-30T11:43:44.264Z,1.00
2023-04-30T11:44:43.224Z,0.80
2023-04-30T11:45:43.209Z,3.20
2023-04-30T11:46:43.213Z,2.40
2023-04-30T11:47:43.248Z,6.70
2023-04-30T11:48:43.219Z,0.50
2023-04-30T11:49:43.195Z,0.50
2023-04-30T11:50:44.390Z,2.10
2023-04-30T11:51:43.172Z,4.10
2023-04-30T11:52:43.193Z,15.20
2023-04-30T11:53:43.165Z,9.90
2023-04-30T11:54:43.140Z,0.40
2023-04-30T11:55:43.162Z,0.90
2023-04-30T11:56:43.149Z,0.50
2023-04-30T11:57:43.136Z,2.00
2023-04-30T11:58:43.133Z,1.70
2023-04-30T11:59:43.118Z,0.60
2023-04-30T12:00:43.142Z,0.70
2023-04-30T12:01:43.209Z,0.40
2023-04-30T12:02:43.537Z,0.60
2023-04-30T12:03:43.186Z,1.20
2023-04-30T12:04:43.136Z,8.40
2023-04-30T12:05:43.069Z,8.80
2023-04-30T12:06:43.214Z,4.20
2023-04-30T12:07:43.094Z,0.70
2023-04-30T12:08:43.096Z,1.60
2023-04-30T12:09:43.037Z,0.50
2023-04-30T12:10:43.032Z,0.50
2023-04-30T12:11:43.027Z,0.50
2023-04-30T12:12:43.038Z,0.50
2023-04-30T12:13:43.198Z,0.50
2023-04-30T12:14:43.039Z,0.50
2023-04-30T12:15:43.013Z,0.50
2023-04-30T12:16:43.073Z,0.50
2023-04-30T12:17:43.007Z,0.50
2023-04-30T12:18:43.005Z,0.50
2023-04-30T12:19:42.976Z,0.60
2023-04-30T12:20:42.964Z,0.60
2023-04-30T12:21:42.950Z,0.60
2023-04-30T12:22:42.960Z,0.90
2023-04-30T12:23:42.936Z,0.70
2023-04-30T12:24:42.927Z,0.90
2023-04-30T12:25:42.925Z,0.70
2023-04-30T12:26:42.908Z,0.70
2023-04-30T12:27:42.938Z,0.60
2023-04-30T12:28:42.901Z,0.60
2023-04-30T12:29:42.903Z,0.60
2023-04-30T12:30:42.885Z,0.60
2023-04-30T12:31:42.951Z,0.70
2023-04-30T12:32:42.914Z,0.80
2023-04-30T12:33:42.875Z,0.70
2023-04-30T12:34:42.849Z,0.70
2023-04-30T12:35:42.907Z,0.70
2023-04-30T12:36:42.885Z,0.70
2023-04-30T12:37:42.858Z,0.90
2023-04-30T12:38:44.221Z,0.70
2023-04-30T12:39:42.819Z,0.70
2023-04-30T12:40:42.850Z,0.90
2023-04-30T12:41:43.358Z,0.80
2023-04-30T12:42:42.900Z,0.60
2023-04-30T12:43:42.901Z,0.70
2023-04-30T12:44:42.837Z,0.80
2023-04-30T12:45:42.816Z,0.60
2023-04-30T12:46:42.836Z,0.60
2023-04-30T12:47:42.812Z,0.60
2023-04-30T12:48:42.799Z,0.70
2023-04-30T12:49:42.764Z,0.50
2023-04-30T12:50:42.744Z,0.60
2023-04-30T12:51:42.767Z,0.60
2023-04-30T12:52:44.033Z,0.70
2023-04-30T12:53:43.773Z,0.60
2023-04-30T12:54:42.708Z,0.60
2023-04-30T12:55:42.711Z,0.60
2023-04-30T12:56:42.699Z,0.60
2023-04-30T12:57:42.692Z,0.60
2023-04-30T12:58:42.709Z,0.60
2023-04-30T12:59:42.680Z,0.50
2023-04-30T13:00:42.668Z,0.50
2023-04-30T13:01:42.695Z,0.50
2023-04-30T13:02:42.705Z,3.80